Main page
METAR-TAF:

METAR-TAF

Airports :

Chichen Itza International Airport

Chichen Itza, Mexico

latitude: 20-38-30N, longitude: 088-26-58W, elevation: 31 m

Current weather observation

The report was made 8 hours and 34 minutes ago, at 00:49 UTC
Calm wind
Temperature 24°C
Humidity 94%
Pressure 1010 hPa
Visibility: 9.7 km
Overcast at a height of 1000 ft

METAR: MMCT 290049Z 00000KT 6SM OVC010 24/23 A2982 RMK 8/7// OCNL DRPS

Time: 04:23 (09:23 UTC)


TAF: missing

Weather observations and forecasts of more than 4000 airports (METAR and TAF reports).

The available stations are represented by yellow and red dots on the map.

Hover mouse over dot to see the name of the station.

Then click to see weather observations and forecasts.

To change the map : click on the green buttons with a black cross to zoom in, on the green button with a dash to zoom out, or on the green arrows for adjacent maps.


METAR-TAF: